sensor_id;sensor_type;location;lat;lon;timestamp;P1;durP1;ratioP1;P2;durP2;ratioP2
48205;SDS011;33995;48.202;16.260;2024-02-04T00:00:02;5.63;;;5.13;;
48205;SDS011;33995;48.202;16.260;2024-02-04T00:02:37;5.20;;;4.80;;
48205;SDS011;33995;48.202;16.260;2024-02-04T00:05:05;5.43;;;5.03;;
48205;SDS011;33995;48.202;16.260;2024-02-04T00:07:34;5.00;;;4.60;;
48205;SDS011;33995;48.202;16.260;2024-02-04T00:10:02;5.03;;;4.60;;
48205;SDS011;33995;48.202;16.260;2024-02-04T00:12:30;5.13;;;4.73;;
48205;SDS011;33995;48.202;16.260;2024-02-04T00:14:57;4.93;;;4.40;;
48205;SDS011;33995;48.202;16.260;2024-02-04T00:17:23;5.03;;;4.63;;
48205;SDS011;33995;48.202;16.260;2024-02-04T00:19:56;4.70;;;4.30;;
48205;SDS011;33995;48.202;16.260;2024-02-04T00:22:24;5.07;;;4.57;;
48205;SDS011;33995;48.202;16.260;2024-02-04T00:24:51;4.93;;;4.50;;
48205;SDS011;33995;48.202;16.260;2024-02-04T00:27:19;4.73;;;4.33;;
48205;SDS011;33995;48.202;16.260;2024-02-04T00:29:46;5.17;;;4.77;;
48205;SDS011;33995;48.202;16.260;2024-02-04T00:32:16;5.10;;;4.70;;
48205;SDS011;33995;48.202;16.260;2024-02-04T00:34:44;5.20;;;4.80;;
48205;SDS011;33995;48.202;16.260;2024-02-04T00:37:11;4.80;;;4.40;;
48205;SDS011;33995;48.202;16.260;2024-02-04T00:39:38;4.63;;;4.23;;
48205;SDS011;33995;48.202;16.260;2024-02-04T00:42:05;4.53;;;4.13;;
48205;SDS011;33995;48.202;16.260;2024-02-04T00:44:34;4.60;;;4.20;;
48205;SDS011;33995;48.202;16.260;2024-02-04T00:47:01;4.30;;;3.90;;
48205;SDS011;33995;48.202;16.260;2024-02-04T00:49:37;4.50;;;4.10;;
48205;SDS011;33995;48.202;16.260;2024-02-04T00:52:05;4.60;;;4.20;;
48205;SDS011;33995;48.202;16.260;2024-02-04T00:54:34;4.50;;;4.10;;
48205;SDS011;33995;48.202;16.260;2024-02-04T00:57:01;4.60;;;4.20;;
48205;SDS011;33995;48.202;16.260;2024-02-04T00:59:29;4.10;;;3.80;;
48205;SDS011;33995;48.202;16.260;2024-02-04T01:01:56;4.37;;;4.07;;
48205;SDS011;33995;48.202;16.260;2024-02-04T01:04:27;4.27;;;3.97;;
48205;SDS011;33995;48.202;16.260;2024-02-04T01:06:55;4.03;;;3.73;;
48205;SDS011;33995;48.202;16.260;2024-02-04T01:09:30;4.20;;;3.90;;
48205;SDS011;33995;48.202;16.260;2024-02-04T01:12:00;3.73;;;3.43;;
48205;SDS011;33995;48.202;16.260;2024-02-04T01:14:28;4.10;;;3.70;;
48205;SDS011;33995;48.202;16.260;2024-02-04T01:16:55;3.83;;;3.53;;
48205;SDS011;33995;48.202;16.260;2024-02-04T01:19:22;4.20;;;3.90;;
48205;SDS011;33995;48.202;16.260;2024-02-04T01:21:49;3.93;;;3.63;;
48205;SDS011;33995;48.202;16.260;2024-02-04T01:24:16;4.13;;;3.83;;
48205;SDS011;33995;48.202;16.260;2024-02-04T01:26:43;4.17;;;3.87;;
48205;SDS011;33995;48.202;16.260;2024-02-04T01:29:13;4.03;;;3.73;;
48205;SDS011;33995;48.202;16.260;2024-02-04T01:31:41;3.67;;;3.37;;
48205;SDS011;33995;48.202;16.260;2024-02-04T01:34:08;4.10;;;3.80;;
48205;SDS011;33995;48.202;16.260;2024-02-04T01:36:38;4.00;;;3.70;;
48205;SDS011;33995;48.202;16.260;2024-02-04T01:39:06;4.13;;;3.83;;
48205;SDS011;33995;48.202;16.260;2024-02-04T01:41:33;4.40;;;4.00;;
48205;SDS011;33995;48.202;16.260;2024-02-04T01:44:01;4.10;;;3.80;;
48205;SDS011;33995;48.202;16.260;2024-02-04T01:46:30;4.40;;;4.00;;
48205;SDS011;33995;48.202;16.260;2024-02-04T01:48:57;4.20;;;3.90;;
48205;SDS011;33995;48.202;16.260;2024-02-04T01:51:25;4.30;;;4.00;;
48205;SDS011;33995;48.202;16.260;2024-02-04T01:53:52;5.10;;;4.60;;
48205;SDS011;33995;48.202;16.260;2024-02-04T01:56:19;4.37;;;4.07;;
48205;SDS011;33995;48.202;16.260;2024-02-04T01:58:47;5.07;;;4.67;;
48205;SDS011;33995;48.202;16.260;2024-02-04T02:01:15;4.77;;;4.47;;
48205;SDS011;33995;48.202;16.260;2024-02-04T02:03:43;4.80;;;4.43;;
48205;SDS011;33995;48.202;16.260;2024-02-04T02:06:10;5.30;;;4.90;;
48205;SDS011;33995;48.202;16.260;2024-02-04T02:08:37;5.50;;;5.10;;
48205;SDS011;33995;48.202;16.260;2024-02-04T02:11:11;5.80;;;5.30;;
48205;SDS011;33995;48.202;16.260;2024-02-04T02:13:44;6.53;;;5.93;;
48205;SDS011;33995;48.202;16.260;2024-02-04T02:16:21;5.57;;;5.17;;
48205;SDS011;33995;48.202;16.260;2024-02-04T02:21:52;6.50;;;6.00;;
48205;SDS011;33995;48.202;16.260;2024-02-04T02:27:00;6.20;;;5.70;;
48205;SDS011;33995;48.202;16.260;2024-02-04T02:29:28;6.03;;;5.53;;
48205;SDS011;33995;48.202;16.260;2024-02-04T02:31:55;6.10;;;5.60;;
48205;SDS011;33995;48.202;16.260;2024-02-04T02:34:27;6.23;;;5.73;;
48205;SDS011;33995;48.202;16.260;2024-02-04T02:37:20;6.13;;;5.63;;
48205;SDS011;33995;48.202;16.260;2024-02-04T02:40:01;6.00;;;5.50;;
48205;SDS011;33995;48.202;16.260;2024-02-04T02:42:37;6.10;;;5.60;;
48205;SDS011;33995;48.202;16.260;2024-02-04T02:45:08;6.30;;;5.70;;
48205;SDS011;33995;48.202;16.260;2024-02-04T02:47:40;6.47;;;5.80;;
48205;SDS011;33995;48.202;16.260;2024-02-04T02:50:08;6.30;;;5.80;;
48205;SDS011;33995;48.202;16.260;2024-02-04T02:52:37;6.00;;;5.50;;
48205;SDS011;33995;48.202;16.260;2024-02-04T02:55:04;6.20;;;5.70;;
48205;SDS011;33995;48.202;16.260;2024-02-04T02:57:34;6.03;;;5.53;;
48205;SDS011;33995;48.202;16.260;2024-02-04T03:00:05;5.50;;;5.07;;
48205;SDS011;33995;48.202;16.260;2024-02-04T03:05:40;5.30;;;4.90;;
48205;SDS011;33995;48.202;16.260;2024-02-04T03:08:09;6.33;;;5.10;;
48205;SDS011;33995;48.202;16.260;2024-02-04T03:10:37;5.30;;;4.80;;
48205;SDS011;33995;48.202;16.260;2024-02-04T03:13:05;5.20;;;4.80;;
48205;SDS011;33995;48.202;16.260;2024-02-04T03:15:33;5.60;;;5.10;;
48205;SDS011;33995;48.202;16.260;2024-02-04T03:18:03;5.20;;;4.80;;
48205;SDS011;33995;48.202;16.260;2024-02-04T03:20:30;5.10;;;4.70;;
48205;SDS011;33995;48.202;16.260;2024-02-04T03:22:57;5.97;;;5.10;;
48205;SDS011;33995;48.202;16.260;2024-02-04T03:25:30;5.00;;;4.60;;
48205;SDS011;33995;48.202;16.260;2024-02-04T03:27:57;4.83;;;4.43;;
48205;SDS011;33995;48.202;16.260;2024-02-04T03:30:24;4.93;;;4.53;;
48205;SDS011;33995;48.202;16.260;2024-02-04T03:32:51;4.63;;;4.33;;
48205;SDS011;33995;48.202;16.260;2024-02-04T03:35:19;4.70;;;4.30;;
48205;SDS011;33995;48.202;16.260;2024-02-04T03:37:46;4.97;;;4.57;;
48205;SDS011;33995;48.202;16.260;2024-02-04T03:40:13;5.20;;;4.70;;
48205;SDS011;33995;48.202;16.260;2024-02-04T03:42:41;4.37;;;4.07;;
48205;SDS011;33995;48.202;16.260;2024-02-04T03:45:08;5.30;;;4.90;;
48205;SDS011;33995;48.202;16.260;2024-02-04T03:47:35;5.00;;;4.60;;
48205;SDS011;33995;48.202;16.260;2024-02-04T03:50:05;5.53;;;5.10;;
48205;SDS011;33995;48.202;16.260;2024-02-04T03:52:34;5.77;;;5.27;;
48205;SDS011;33995;48.202;16.260;2024-02-04T03:55:01;6.13;;;5.63;;
48205;SDS011;33995;48.202;16.260;2024-02-04T03:57:29;5.57;;;5.10;;
48205;SDS011;33995;48.202;16.260;2024-02-04T03:59:57;6.30;;;5.77;;
48205;SDS011;33995;48.202;16.260;2024-02-04T04:02:25;5.90;;;5.40;;
48205;SDS011;33995;48.202;16.260;2024-02-04T04:04:55;5.43;;;4.93;;
48205;SDS011;33995;48.202;16.260;2024-02-04T04:07:22;5.40;;;5.00;;
48205;SDS011;33995;48.202;16.260;2024-02-04T04:09:49;6.13;;;5.47;;
48205;SDS011;33995;48.202;16.260;2024-02-04T04:12:19;5.60;;;5.10;;
48205;SDS011;33995;48.202;16.260;2024-02-04T04:14:47;5.47;;;4.97;;
48205;SDS011;33995;48.202;16.260;2024-02-04T04:17:14;5.63;;;5.13;;
48205;SDS011;33995;48.202;16.260;2024-02-04T04:19:41;5.47;;;5.07;;
48205;SDS011;33995;48.202;16.260;2024-02-04T04:22:08;5.50;;;5.10;;
48205;SDS011;33995;48.202;16.260;2024-02-04T04:24:35;5.37;;;4.97;;
48205;SDS011;33995;48.202;16.260;2024-02-04T04:27:04;5.23;;;4.80;;
48205;SDS011;33995;48.202;16.260;2024-02-04T04:29:31;5.27;;;4.87;;
48205;SDS011;33995;48.202;16.260;2024-02-04T04:31:58;5.57;;;5.07;;
48205;SDS011;33995;48.202;16.260;2024-02-04T04:34:25;5.43;;;5.00;;
48205;SDS011;33995;48.202;16.260;2024-02-04T04:36:52;5.27;;;4.87;;
48205;SDS011;33995;48.202;16.260;2024-02-04T04:39:21;5.10;;;4.63;;
48205;SDS011;33995;48.202;16.260;2024-02-04T04:41:49;4.67;;;4.27;;
48205;SDS011;33995;48.202;16.260;2024-02-04T04:44:19;4.93;;;4.53;;
48205;SDS011;33995;48.202;16.260;2024-02-04T04:46:51;4.83;;;4.30;;
48205;SDS011;33995;48.202;16.260;2024-02-04T04:49:19;4.33;;;3.93;;
48205;SDS011;33995;48.202;16.260;2024-02-04T04:51:48;4.30;;;4.00;;
48205;SDS011;33995;48.202;16.260;2024-02-04T04:54:16;4.33;;;3.93;;
48205;SDS011;33995;48.202;16.260;2024-02-04T04:56:45;4.03;;;3.73;;
48205;SDS011;33995;48.202;16.260;2024-02-04T04:59:14;4.20;;;3.80;;
48205;SDS011;33995;48.202;16.260;2024-02-04T05:01:45;4.30;;;3.90;;
48205;SDS011;33995;48.202;16.260;2024-02-04T05:04:14;4.10;;;3.80;;
48205;SDS011;33995;48.202;16.260;2024-02-04T05:06:45;3.80;;;3.50;;
48205;SDS011;33995;48.202;16.260;2024-02-04T05:09:12;5.30;;;4.00;;
48205;SDS011;33995;48.202;16.260;2024-02-04T05:11:39;4.13;;;3.83;;
48205;SDS011;33995;48.202;16.260;2024-02-04T05:14:09;3.70;;;3.40;;
48205;SDS011;33995;48.202;16.260;2024-02-04T05:16:37;3.73;;;3.33;;
48205;SDS011;33995;48.202;16.260;2024-02-04T05:19:04;3.60;;;3.23;;
48205;SDS011;33995;48.202;16.260;2024-02-04T05:21:37;3.70;;;3.40;;
48205;SDS011;33995;48.202;16.260;2024-02-04T05:24:05;3.70;;;3.40;;
48205;SDS011;33995;48.202;16.260;2024-02-04T05:26:32;3.60;;;3.30;;
48205;SDS011;33995;48.202;16.260;2024-02-04T05:28:59;4.07;;;3.73;;
48205;SDS011;33995;48.202;16.260;2024-02-04T05:31:26;3.50;;;3.20;;
48205;SDS011;33995;48.202;16.260;2024-02-04T05:33:53;3.77;;;3.47;;
48205;SDS011;33995;48.202;16.260;2024-02-04T05:36:26;3.93;;;3.63;;
48205;SDS011;33995;48.202;16.260;2024-02-04T05:39:11;3.83;;;3.53;;
48205;SDS011;33995;48.202;16.260;2024-02-04T05:41:39;3.97;;;3.67;;
48205;SDS011;33995;48.202;16.260;2024-02-04T05:44:09;4.37;;;4.00;;
48205;SDS011;33995;48.202;16.260;2024-02-04T05:46:37;4.27;;;3.87;;
48205;SDS011;33995;48.202;16.260;2024-02-04T05:49:05;4.03;;;3.73;;
48205;SDS011;33995;48.202;16.260;2024-02-04T05:51:39;4.60;;;4.20;;
48205;SDS011;33995;48.202;16.260;2024-02-04T05:54:07;4.37;;;4.07;;
48205;SDS011;33995;48.202;16.260;2024-02-04T05:56:35;4.67;;;4.27;;
48205;SDS011;33995;48.202;16.260;2024-02-04T05:59:02;4.60;;;4.20;;
48205;SDS011;33995;48.202;16.260;2024-02-04T06:01:29;4.30;;;4.00;;
48205;SDS011;33995;48.202;16.260;2024-02-04T06:03:56;4.67;;;4.27;;
48205;SDS011;33995;48.202;16.260;2024-02-04T06:06:30;4.83;;;4.43;;
48205;SDS011;33995;48.202;16.260;2024-02-04T06:09:03;4.20;;;3.80;;
48205;SDS011;33995;48.202;16.260;2024-02-04T06:11:30;4.93;;;4.53;;
48205;SDS011;33995;48.202;16.260;2024-02-04T06:13:57;4.87;;;4.47;;
48205;SDS011;33995;48.202;16.260;2024-02-04T06:16:24;4.57;;;4.17;;
48205;SDS011;33995;48.202;16.260;2024-02-04T06:18:51;5.00;;;4.60;;
48205;SDS011;33995;48.202;16.260;2024-02-04T06:21:22;4.80;;;4.40;;
48205;SDS011;33995;48.202;16.260;2024-02-04T06:23:49;4.70;;;4.30;;
48205;SDS011;33995;48.202;16.260;2024-02-04T06:26:16;4.77;;;4.37;;
48205;SDS011;33995;48.202;16.260;2024-02-04T06:28:46;4.90;;;4.50;;
48205;SDS011;33995;48.202;16.260;2024-02-04T06:31:18;4.97;;;4.50;;
48205;SDS011;33995;48.202;16.260;2024-02-04T06:33:45;4.47;;;4.17;;
48205;SDS011;33995;48.202;16.260;2024-02-04T06:36:12;4.63;;;4.23;;
48205;SDS011;33995;48.202;16.260;2024-02-04T06:38:39;4.73;;;4.33;;
48205;SDS011;33995;48.202;16.260;2024-02-04T06:41:06;4.80;;;4.40;;
48205;SDS011;33995;48.202;16.260;2024-02-04T06:43:36;4.50;;;4.17;;
48205;SDS011;33995;48.202;16.260;2024-02-04T06:46:06;5.10;;;4.60;;
48205;SDS011;33995;48.202;16.260;2024-02-04T06:48:36;4.77;;;4.37;;
48205;SDS011;33995;48.202;16.260;2024-02-04T06:51:04;4.70;;;4.30;;
48205;SDS011;33995;48.202;16.260;2024-02-04T06:53:31;4.30;;;3.90;;
48205;SDS011;33995;48.202;16.260;2024-02-04T06:56:01;4.53;;;4.17;;
48205;SDS011;33995;48.202;16.260;2024-02-04T06:58:28;4.80;;;4.40;;
48205;SDS011;33995;48.202;16.260;2024-02-04T07:00:55;4.33;;;4.03;;
48205;SDS011;33995;48.202;16.260;2024-02-04T07:03:25;4.27;;;3.97;;
48205;SDS011;33995;48.202;16.260;2024-02-04T07:05:52;4.53;;;4.13;;
48205;SDS011;33995;48.202;16.260;2024-02-04T07:08:20;4.20;;;3.90;;
48205;SDS011;33995;48.202;16.260;2024-02-04T07:10:50;3.80;;;3.50;;
48205;SDS011;33995;48.202;16.260;2024-02-04T07:13:17;4.13;;;3.83;;
48205;SDS011;33995;48.202;16.260;2024-02-04T07:15:50;3.70;;;3.40;;
48205;SDS011;33995;48.202;16.260;2024-02-04T07:18:21;3.73;;;3.43;;
48205;SDS011;33995;48.202;16.260;2024-02-04T07:20:49;3.73;;;3.43;;
48205;SDS011;33995;48.202;16.260;2024-02-04T07:23:15;4.03;;;3.63;;
48205;SDS011;33995;48.202;16.260;2024-02-04T07:25:42;3.77;;;3.47;;
48205;SDS011;33995;48.202;16.260;2024-02-04T07:28:10;3.70;;;3.40;;
48205;SDS011;33995;48.202;16.260;2024-02-04T07:30:40;3.97;;;3.67;;
48205;SDS011;33995;48.202;16.260;2024-02-04T07:33:07;4.07;;;3.77;;
48205;SDS011;33995;48.202;16.260;2024-02-04T07:35:34;4.30;;;3.90;;
48205;SDS011;33995;48.202;16.260;2024-02-04T07:38:01;4.00;;;3.70;;
48205;SDS011;33995;48.202;16.260;2024-02-04T07:40:28;3.87;;;3.57;;
48205;SDS011;33995;48.202;16.260;2024-02-04T07:42:56;4.47;;;3.80;;
48205;SDS011;33995;48.202;16.260;2024-02-04T07:45:23;3.80;;;3.50;;
48205;SDS011;33995;48.202;16.260;2024-02-04T07:47:51;3.70;;;3.40;;
48205;SDS011;33995;48.202;16.260;2024-02-04T07:50:18;3.57;;;3.27;;
48205;SDS011;33995;48.202;16.260;2024-02-04T07:52:45;3.40;;;3.10;;
48205;SDS011;33995;48.202;16.260;2024-02-04T07:55:12;3.30;;;3.00;;
48205;SDS011;33995;48.202;16.260;2024-02-04T07:57:39;3.33;;;2.93;;
48205;SDS011;33995;48.202;16.260;2024-02-04T08:00:06;3.30;;;2.90;;
48205;SDS011;33995;48.202;16.260;2024-02-04T08:02:40;2.77;;;2.57;;
48205;SDS011;33995;48.202;16.260;2024-02-04T08:05:07;2.77;;;2.50;;
48205;SDS011;33995;48.202;16.260;2024-02-04T08:07:34;2.60;;;2.40;;
48205;SDS011;33995;48.202;16.260;2024-02-04T08:10:04;2.93;;;2.57;;
48205;SDS011;33995;48.202;16.260;2024-02-04T08:12:32;2.67;;;2.47;;
48205;SDS011;33995;48.202;16.260;2024-02-04T08:15:00;2.50;;;2.30;;
48205;SDS011;33995;48.202;16.260;2024-02-04T08:17:31;2.17;;;1.87;;
48205;SDS011;33995;48.202;16.260;2024-02-04T08:19:59;2.13;;;2.00;;
48205;SDS011;33995;48.202;16.260;2024-02-04T08:22:26;2.03;;;1.90;;
48205;SDS011;33995;48.202;16.260;2024-02-04T08:24:53;1.93;;;1.83;;
48205;SDS011;33995;48.202;16.260;2024-02-04T08:27:23;1.87;;;1.77;;
48205;SDS011;33995;48.202;16.260;2024-02-04T08:29:50;2.00;;;1.90;;
48205;SDS011;33995;48.202;16.260;2024-02-04T08:32:17;1.80;;;1.70;;
48205;SDS011;33995;48.202;16.260;2024-02-04T08:34:44;1.87;;;1.77;;
48205;SDS011;33995;48.202;16.260;2024-02-04T08:37:11;1.63;;;1.53;;
48205;SDS011;33995;48.202;16.260;2024-02-04T08:39:38;1.70;;;1.60;;
48205;SDS011;33995;48.202;16.260;2024-02-04T08:42:05;1.60;;;1.50;;
48205;SDS011;33995;48.202;16.260;2024-02-04T08:44:32;1.60;;;1.50;;
48205;SDS011;33995;48.202;16.260;2024-02-04T08:47:05;1.57;;;1.47;;
48205;SDS011;33995;48.202;16.260;2024-02-04T08:49:39;1.50;;;1.40;;
48205;SDS011;33995;48.202;16.260;2024-02-04T08:52:06;1.33;;;1.23;;
48205;SDS011;33995;48.202;16.260;2024-02-04T08:54:34;1.40;;;1.30;;
48205;SDS011;33995;48.202;16.260;2024-02-04T08:57:01;1.57;;;1.40;;
48205;SDS011;33995;48.202;16.260;2024-02-04T08:59:28;1.40;;;1.30;;
48205;SDS011;33995;48.202;16.260;2024-02-04T09:01:55;1.30;;;1.20;;
48205;SDS011;33995;48.202;16.260;2024-02-04T09:04:25;1.40;;;1.30;;
48205;SDS011;33995;48.202;16.260;2024-02-04T09:06:52;2.10;;;1.40;;
48205;SDS011;33995;48.202;16.260;2024-02-04T09:09:19;1.40;;;1.30;;
48205;SDS011;33995;48.202;16.260;2024-02-04T09:11:46;1.80;;;1.53;;
48205;SDS011;33995;48.202;16.260;2024-02-04T09:14:13;1.57;;;1.47;;
48205;SDS011;33995;48.202;16.260;2024-02-04T09:16:40;1.40;;;1.30;;
48205;SDS011;33995;48.202;16.260;2024-02-04T09:19:07;1.20;;;1.10;;
48205;SDS011;33995;48.202;16.260;2024-02-04T09:21:34;3.07;;;1.10;;
48205;SDS011;33995;48.202;16.260;2024-02-04T09:24:01;1.30;;;1.20;;
48205;SDS011;33995;48.202;16.260;2024-02-04T09:26:31;1.00;;;1.00;;
48205;SDS011;33995;48.202;16.260;2024-02-04T09:28:58;1.40;;;1.30;;
48205;SDS011;33995;48.202;16.260;2024-02-04T09:31:28;1.30;;;1.20;;
48205;SDS011;33995;48.202;16.260;2024-02-04T09:33:55;1.27;;;1.10;;
48205;SDS011;33995;48.202;16.260;2024-02-04T09:36:27;1.10;;;0.97;;
48205;SDS011;33995;48.202;16.260;2024-02-04T09:38:54;1.30;;;1.20;;
48205;SDS011;33995;48.202;16.260;2024-02-04T09:41:25;1.10;;;1.00;;
48205;SDS011;33995;48.202;16.260;2024-02-04T09:43:53;0.97;;;0.93;;
48205;SDS011;33995;48.202;16.260;2024-02-04T09:46:20;1.37;;;1.10;;
48205;SDS011;33995;48.202;16.260;2024-02-04T09:48:47;1.03;;;1.00;;
48205;SDS011;33995;48.202;16.260;2024-02-04T09:51:18;1.00;;;0.90;;
48205;SDS011;33995;48.202;16.260;2024-02-04T09:53:51;0.93;;;0.93;;
48205;SDS011;33995;48.202;16.260;2024-02-04T09:56:22;1.00;;;1.00;;
48205;SDS011;33995;48.202;16.260;2024-02-04T09:58:52;1.37;;;1.13;;
48205;SDS011;33995;48.202;16.260;2024-02-04T10:01:19;1.07;;;0.90;;
48205;SDS011;33995;48.202;16.260;2024-02-04T10:03:49;0.80;;;0.80;;
48205;SDS011;33995;48.202;16.260;2024-02-04T10:06:16;1.73;;;1.10;;
48205;SDS011;33995;48.202;16.260;2024-02-04T10:08:44;1.10;;;1.10;;
48205;SDS011;33995;48.202;16.260;2024-02-04T10:11:12;0.90;;;0.90;;
48205;SDS011;33995;48.202;16.260;2024-02-04T10:13:46;1.40;;;1.30;;
48205;SDS011;33995;48.202;16.260;2024-02-04T10:16:15;1.30;;;1.20;;
48205;SDS011;33995;48.202;16.260;2024-02-04T10:18:47;1.20;;;1.10;;
48205;SDS011;33995;48.202;16.260;2024-02-04T10:23:47;1.07;;;1.00;;
48205;SDS011;33995;48.202;16.260;2024-02-04T10:26:15;1.67;;;1.13;;
48205;SDS011;33995;48.202;16.260;2024-02-04T10:28:46;1.23;;;1.00;;
48205;SDS011;33995;48.202;16.260;2024-02-04T10:31:14;1.33;;;1.00;;
48205;SDS011;33995;48.202;16.260;2024-02-04T10:33:41;1.00;;;1.00;;
48205;SDS011;33995;48.202;16.260;2024-02-04T10:36:10;1.13;;;1.03;;
48205;SDS011;33995;48.202;16.260;2024-02-04T10:38:37;1.53;;;0.90;;
48205;SDS011;33995;48.202;16.260;2024-02-04T10:41:04;1.00;;;0.90;;
48205;SDS011;33995;48.202;16.260;2024-02-04T10:43:35;1.57;;;1.20;;
48205;SDS011;33995;48.202;16.260;2024-02-04T10:46:22;1.23;;;1.00;;
48205;SDS011;33995;48.202;16.260;2024-02-04T10:48:55;1.87;;;0.90;;
48205;SDS011;33995;48.202;16.260;2024-02-04T10:51:29;0.87;;;0.87;;
48205;SDS011;33995;48.202;16.260;2024-02-04T10:53:57;0.70;;;0.70;;
48205;SDS011;33995;48.202;16.260;2024-02-04T10:56:30;0.90;;;0.70;;
48205;SDS011;33995;48.202;16.260;2024-02-04T10:59:03;1.10;;;0.90;;
48205;SDS011;33995;48.202;16.260;2024-02-04T11:01:30;1.10;;;0.70;;
48205;SDS011;33995;48.202;16.260;2024-02-04T11:04:01;1.97;;;0.87;;
48205;SDS011;33995;48.202;16.260;2024-02-04T11:06:30;0.63;;;0.63;;
48205;SDS011;33995;48.202;16.260;2024-02-04T11:09:02;0.67;;;0.67;;
48205;SDS011;33995;48.202;16.260;2024-02-04T11:11:37;0.70;;;0.70;;
48205;SDS011;33995;48.202;16.260;2024-02-04T11:14:07;0.70;;;0.70;;
48205;SDS011;33995;48.202;16.260;2024-02-04T11:21:58;1.37;;;0.70;;
48205;SDS011;33995;48.202;16.260;2024-02-04T11:27:39;0.80;;;0.80;;
48205;SDS011;33995;48.202;16.260;2024-02-04T11:30:07;1.37;;;1.27;;
48205;SDS011;33995;48.202;16.260;2024-02-04T11:32:39;0.70;;;0.70;;
48205;SDS011;33995;48.202;16.260;2024-02-04T11:35:07;0.80;;;0.73;;
48205;SDS011;33995;48.202;16.260;2024-02-04T11:37:38;0.90;;;0.90;;
48205;SDS011;33995;48.202;16.260;2024-02-04T11:40:13;1.17;;;1.00;;
48205;SDS011;33995;48.202;16.260;2024-02-04T11:42:45;3.37;;;1.10;;
48205;SDS011;33995;48.202;16.260;2024-02-04T11:45:13;0.90;;;0.90;;
48205;SDS011;33995;48.202;16.260;2024-02-04T11:47:41;1.70;;;0.80;;
48205;SDS011;33995;48.202;16.260;2024-02-04T11:50:09;1.00;;;0.90;;
48205;SDS011;33995;48.202;16.260;2024-02-04T11:52:39;0.87;;;0.87;;
48205;SDS011;33995;48.202;16.260;2024-02-04T11:55:12;1.30;;;1.20;;
48205;SDS011;33995;48.202;16.260;2024-02-04T11:57:40;1.03;;;0.90;;
48205;SDS011;33995;48.202;16.260;2024-02-04T12:00:09;1.33;;;1.20;;
48205;SDS011;33995;48.202;16.260;2024-02-04T12:02:40;1.20;;;1.10;;
48205;SDS011;33995;48.202;16.260;2024-02-04T12:05:09;1.93;;;1.30;;
48205;SDS011;33995;48.202;16.260;2024-02-04T12:07:36;1.50;;;1.17;;
48205;SDS011;33995;48.202;16.260;2024-02-04T12:10:09;1.30;;;1.20;;
48205;SDS011;33995;48.202;16.260;2024-02-04T12:12:37;1.40;;;1.30;;
48205;SDS011;33995;48.202;16.260;2024-02-04T12:15:04;1.30;;;1.20;;
48205;SDS011;33995;48.202;16.260;2024-02-04T12:17:32;1.30;;;1.20;;
48205;SDS011;33995;48.202;16.260;2024-02-04T12:20:02;1.20;;;1.07;;
48205;SDS011;33995;48.202;16.260;2024-02-04T12:22:33;1.53;;;1.30;;
48205;SDS011;33995;48.202;16.260;2024-02-04T12:25:03;1.67;;;1.10;;
48205;SDS011;33995;48.202;16.260;2024-02-04T12:27:30;1.40;;;1.00;;
48205;SDS011;33995;48.202;16.260;2024-02-04T12:29:58;1.77;;;1.10;;
48205;SDS011;33995;48.202;16.260;2024-02-04T12:32:28;1.50;;;1.40;;
48205;SDS011;33995;48.202;16.260;2024-02-04T12:34:58;1.30;;;1.20;;
48205;SDS011;33995;48.202;16.260;2024-02-04T12:37:26;1.20;;;1.10;;
48205;SDS011;33995;48.202;16.260;2024-02-04T12:39:54;1.43;;;1.10;;
48205;SDS011;33995;48.202;16.260;2024-02-04T12:42:21;1.40;;;1.10;;
48205;SDS011;33995;48.202;16.260;2024-02-04T12:44:48;1.30;;;1.20;;
48205;SDS011;33995;48.202;16.260;2024-02-04T12:47:19;2.43;;;1.23;;
48205;SDS011;33995;48.202;16.260;2024-02-04T12:49:49;1.83;;;1.50;;
48205;SDS011;33995;48.202;16.260;2024-02-04T12:52:24;1.90;;;1.70;;
48205;SDS011;33995;48.202;16.260;2024-02-04T12:54:51;1.70;;;1.40;;
48205;SDS011;33995;48.202;16.260;2024-02-04T12:57:22;1.90;;;1.57;;
48205;SDS011;33995;48.202;16.260;2024-02-04T13:00:04;1.63;;;1.53;;
48205;SDS011;33995;48.202;16.260;2024-02-04T13:02:37;1.70;;;1.60;;
48205;SDS011;33995;48.202;16.260;2024-02-04T13:05:07;2.80;;;1.77;;
48205;SDS011;33995;48.202;16.260;2024-02-04T13:07:50;1.77;;;1.67;;
48205;SDS011;33995;48.202;16.260;2024-02-04T13:10:24;1.73;;;1.53;;
48205;SDS011;33995;48.202;16.260;2024-02-04T13:15:30;1.70;;;1.60;;
48205;SDS011;33995;48.202;16.260;2024-02-04T13:17:58;2.03;;;1.80;;
48205;SDS011;33995;48.202;16.260;2024-02-04T13:20:28;2.63;;;2.00;;
48205;SDS011;33995;48.202;16.260;2024-02-04T13:22:57;2.10;;;1.90;;
48205;SDS011;33995;48.202;16.260;2024-02-04T13:25:26;2.53;;;1.93;;
48205;SDS011;33995;48.202;16.260;2024-02-04T13:27:54;1.97;;;1.87;;
48205;SDS011;33995;48.202;16.260;2024-02-04T13:30:21;1.97;;;1.77;;
48205;SDS011;33995;48.202;16.260;2024-02-04T13:32:48;2.53;;;1.90;;
48205;SDS011;33995;48.202;16.260;2024-02-04T13:35:17;2.63;;;2.20;;
48205;SDS011;33995;48.202;16.260;2024-02-04T13:37:48;4.63;;;3.77;;
48205;SDS011;33995;48.202;16.260;2024-02-04T13:40:18;2.30;;;2.10;;
48205;SDS011;33995;48.202;16.260;2024-02-04T13:42:47;2.47;;;2.07;;
48205;SDS011;33995;48.202;16.260;2024-02-04T13:45:14;2.80;;;2.20;;
48205;SDS011;33995;48.202;16.260;2024-02-04T13:47:43;3.20;;;2.90;;
48205;SDS011;33995;48.202;16.260;2024-02-04T13:50:10;3.50;;;3.20;;
48205;SDS011;33995;48.202;16.260;2024-02-04T13:52:41;2.97;;;2.77;;
48205;SDS011;33995;48.202;16.260;2024-02-04T13:55:08;2.90;;;2.70;;
48205;SDS011;33995;48.202;16.260;2024-02-04T13:57:36;2.90;;;2.20;;
48205;SDS011;33995;48.202;16.260;2024-02-04T14:00:03;2.87;;;2.20;;
48205;SDS011;33995;48.202;16.260;2024-02-04T14:02:35;2.73;;;2.30;;
48205;SDS011;33995;48.202;16.260;2024-02-04T14:05:06;2.87;;;2.67;;
48205;SDS011;33995;48.202;16.260;2024-02-04T14:07:36;2.50;;;2.30;;
48205;SDS011;33995;48.202;16.260;2024-02-04T14:10:03;2.50;;;2.30;;
48205;SDS011;33995;48.202;16.260;2024-02-04T14:12:35;2.43;;;2.23;;
48205;SDS011;33995;48.202;16.260;2024-02-04T14:15:02;2.50;;;2.30;;
48205;SDS011;33995;48.202;16.260;2024-02-04T14:17:33;2.27;;;2.07;;
48205;SDS011;33995;48.202;16.260;2024-02-04T14:20:00;3.33;;;2.20;;
48205;SDS011;33995;48.202;16.260;2024-02-04T14:22:27;2.67;;;2.20;;
48205;SDS011;33995;48.202;16.260;2024-02-04T14:24:55;3.03;;;2.43;;
48205;SDS011;33995;48.202;16.260;2024-02-04T14:27:25;2.90;;;2.50;;
48205;SDS011;33995;48.202;16.260;2024-02-04T14:29:52;2.50;;;2.30;;
48205;SDS011;33995;48.202;16.260;2024-02-04T14:32:19;2.60;;;2.40;;
48205;SDS011;33995;48.202;16.260;2024-02-04T14:34:50;2.80;;;2.60;;
48205;SDS011;33995;48.202;16.260;2024-02-04T14:37:20;2.47;;;2.20;;
48205;SDS011;33995;48.202;16.260;2024-02-04T14:39:47;2.80;;;2.30;;
48205;SDS011;33995;48.202;16.260;2024-02-04T14:42:17;2.20;;;2.00;;
48205;SDS011;33995;48.202;16.260;2024-02-04T14:44:45;2.30;;;2.10;;
48205;SDS011;33995;48.202;16.260;2024-02-04T14:47:15;2.93;;;2.00;;
48205;SDS011;33995;48.202;16.260;2024-02-04T14:49:42;2.23;;;2.03;;
48205;SDS011;33995;48.202;16.260;2024-02-04T14:52:10;2.20;;;2.00;;
48205;SDS011;33995;48.202;16.260;2024-02-04T14:54:37;2.63;;;2.20;;
48205;SDS011;33995;48.202;16.260;2024-02-04T14:57:05;2.30;;;2.10;;
48205;SDS011;33995;48.202;16.260;2024-02-04T14:59:32;2.40;;;2.10;;
48205;SDS011;33995;48.202;16.260;2024-02-04T15:02:03;2.20;;;2.00;;
48205;SDS011;33995;48.202;16.260;2024-02-04T15:04:31;2.40;;;2.20;;